Date,TemperatureHighF,TemperatureAvgF,TemperatureLowF,DewpointHighF,DewpointAvgF,DewpointLowF,HumidityHigh,HumidityAvg,HumidityLow,PressureMaxIn,PressureMinIn,WindSpeedMaxMPH,WindSpeedAvgMPH,GustSpeedMaxMPH,PrecipitationSumIn
2013-1-1,43.2,32.2,23.0,26.0,19.3,11.7,81,61,44,30.21,30.12,8,2,8,0.00
2013-1-2,42.8,37.3,30.4,16.7,14.2,10.1,42,38,33,30.15,30.06,9,2,9,0.00
2013-1-3,45.3,36.8,29.1,16.9,11.6,5.0,41,35,30,30.21,30.15,8,2,8,0.00
2013-1-4,47.1,37.0,26.4,16.5,12.0,5.0,47,36,29,30.30,30.18,6,1,6,0.00
2013-1-6,40.3,36.3,33.8,33.6,29.7,20.5,85,77,55,30.15,29.97,13,4,13,0.00
2013-1-7,44.1,34.5,29.5,30.4,25.4,18.7,83,71,41,30.06,29.97,12,1,12,0.33
2013-1-8,56.5,41.7,28.2,29.9,24.4,15.9,64,51,35,30.21,30.06,7,1,7,0.00
2013-1-9,58.3,47.1,34.0,32.8,28.1,22.2,67,49,36,30.27,30.06,8,1,8,0.00
2013-1-10,42.3,35.7,24.8,38.9,27.6,21.2,98,76,45,30.06,29.88,17,5,17,0.21
2013-1-11,33.6,25.9,19.6,23.6,20.2,16.7,92,80,53,30.09,30.00,18,4,18,0.00
2013-1-12,36.7,28.3,17.8,23.1,15.3,9.7,82,59,42,30.09,29.97,10,2,10,0.04
2013-1-13,37.6,30.6,17.4,17.4,14.6,9.1,71,52,41,30.09,30.00,8,2,8,0.00
2013-1-14,34.0,25.3,16.0,10.2,5.6,-0.8,56,43,32,30.24,30.06,8,1,8,0.00
2013-1-15,38.5,30.4,21.2,13.1,7.6,-0.3,41,38,34,30.36,30.24,10,2,10,0.00
2013-1-16,45.7,40.6,33.6,20.9,17.0,11.9,41,38,35,30.36,30.24,13,4,13,0.00
2013-1-17,50.9,43.8,37.2,20.1,15.2,11.3,39,31,27,30.33,30.21,10,3,10,0.00
2013-1-18,53.1,47.8,36.9,20.7,18.9,11.8,39,32,28,30.27,30.21,8,4,8,0.00
2013-1-19,54.0,44.3,35.8,20.7,15.6,12.1,40,32,26,30.24,30.21,8,1,8,0.00
2013-1-20,36.7,36.7,36.7,13.5,13.5,10.8,38,38,38,30.27,30.24,1,1,1,0.00
2013-1-21,57.4,45.7,33.6,20.5,12.9,9.2,40,27,17,30.24,30.15,8,2,8,0.00
2013-1-22,62.6,49.1,35.1,19.9,15.4,11.5,40,27,16,30.24,30.18,8,2,8,0.00
2013-1-23,68.5,61.9,36.9,33.5,30.1,14.8,40,30,24,30.24,30.18,9,2,9,0.00
2013-1-24,61.7,52.8,46.8,48.7,41.9,36.7,72,67,58,30.24,30.18,5,1,5,0.04
2013-1-25,52.7,49.8,46.9,45.7,43.3,38.7,84,78,72,30.24,30.03,5,0,5,1.08
2013-1-26,54.7,48.8,44.4,48.5,46.5,43.5,98,92,79,30.06,30.00,10,3,10,0.25
2013-1-27,48.9,39.5,32.9,46.7,36.9,29.3,98,90,78,30.06,29.97,13,4,13,0.08
2013-1-28,41.7,34.1,28.4,32.2,27.8,23.1,95,78,60,30.15,30.00,10,3,10,0.04
2013-1-29,46.2,38.6,29.1,34.3,28.9,20.5,86,69,50,30.24,30.15,13,3,13,0.00
2013-1-30,53.2,44.3,34.0,30.1,26.2,22.7,82,50,38,30.36,30.24,11,2,11,0.00
2013-1-31,57.4,45.6,33.8,31.0,26.7,22.1,71,49,36,30.33,30.21,9,2,9,0.00
2013-2-1,61.5,57.5,35.4,32.8,31.1,25.6,67,37,31,30.30,30.24,6,2,6,0.00
2013-2-2,63.3,57.0,49.8,32.0,28.6,26.1,49,34,27,30.33,30.24,7,1,7,0.00
2013-2-3,59.4,53.7,44.2,37.7,36.1,31.4,68,52,44,30.27,30.12,7,3,7,0.00
2013-2-4,59.9,51.9,30.2,37.7,32.9,25.1,85,51,34,30.18,30.09,7,2,7,0.00
2013-2-6,54.7,43.2,29.3,36.7,28.6,20.9,71,57,36,30.15,30.03,8,2,8,0.00
2013-2-7,56.7,42.4,28.8,38.0,29.9,19.9,88,64,29,30.18,30.00,13,3,13,0.00
2013-2-8,35.6,32.3,29.5,33.0,31.2,29.0,98,96,87,30.00,29.85,15,4,15,0.00
2013-2-9,40.1,33.1,27.9,35.1,30.8,26.9,98,91,78,30.06,29.88,12,4,12,0.04
2013-2-10,43.7,36.5,29.3,35.3,30.7,28.0,95,80,66,30.06,30.00,10,3,10,0.17
2013-2-11,49.1,35.4,21.0,33.1,23.3,9.7,87,62,43,30.21,30.03,8,1,8,0.33
2013-2-12,46.4,39.0,20.7,21.6,18.2,9.7,62,43,34,30.33,30.21,9,1,9,0.00
2013-2-13,53.2,41.8,27.1,26.7,22.1,12.7,65,47,33,30.30,30.18,6,2,6,0.00
2013-2-14,55.4,41.3,28.2,28.4,22.3,18.3,67,48,33,30.27,30.15,10,2,10,0.00
2013-2-15,56.7,48.8,41.7,22.7,19.0,14.2,41,31,25,30.27,30.21,17,6,17,0.26
2013-2-16,47.3,35.8,32.2,15.9,13.4,10.7,44,39,28,30.27,30.15,4,0,4,0.00
2013-2-17,32.4,32.4,32.4,12.9,12.9,12.9,44,44,44,30.15,30.15,6,6,6,0.00
2013-2-18,57.6,42.9,27.7,30.9,22.3,12.2,60,45,26,30.09,30.00,9,2,9,0.00
2013-2-19,38.8,34.2,27.9,34.5,30.6,10.9,98,88,48,30.00,29.74,12,4,12,0.00
2013-2-20,42.3,34.0,27.9,37.5,31.8,27.4,98,92,80,29.97,29.68,10,1,10,0.00
2013-2-21,49.5,41.2,28.6,38.8,34.2,28.1,98,76,55,30.03,29.97,9,2,9,0.00
2013-2-22,48.6,38.6,26.8,31.6,22.3,17.0,74,53,37,30.21,30.00,8,2,8,0.00
2013-2-25,51.8,41.3,26.4,19.6,15.2,9.4,67,35,27,30.24,30.12,10,2,10,0.00
2013-2-26,50.9,45.2,27.1,19.6,15.8,7.3,43,31,27,30.15,30.09,11,3,11,0.00
2013-2-27,50.2,48.1,35.1,18.0,16.9,12.0,38,29,27,30.33,30.15,10,4,10,0.00
2013-2-28,55.0,42.6,36.0,14.6,12.3,9.4,38,29,20,30.41,30.33,7,2,7,0.00
2013-3-1,62.1,53.1,38.5,24.9,19.9,13.6,40,27,21,30.41,30.33,11,3,11,0.00
2013-3-2,68.7,65.8,39.6,28.7,27.4,16.7,39,23,22,30.39,30.27,8,3,8,0.00
2013-3-3,66.4,51.6,43.7,29.8,23.8,20.7,45,34,23,30.27,30.06,13,5,13,0.00
2013-3-4,58.1,49.7,34.2,37.9,32.9,23.4,74,54,41,30.18,30.06,10,3,10,0.00
2013-3-5,63.9,46.7,34.0,40.8,33.0,24.5,84,61,34,30.18,30.09,9,2,9,0.00
2013-3-6,54.3,45.5,37.4,35.5,34.4,29.1,88,67,47,30.12,30.03,11,5,11,0.00
2013-3-7,46.2,40.1,34.3,42.6,37.6,33.2,98,91,74,30.03,29.91,13,4,13,0.09
2013-3-8,41.7,35.4,32.5,37.4,33.2,30.6,98,92,77,30.03,29.82,12,2,12,0.45
2013-3-9,48.6,39.1,32.2,40.5,36.0,31.2,98,89,72,30.21,30.00,10,4,10,0.67
2013-3-10,55.6,45.3,32.5,33.7,28.5,23.3,96,55,34,30.27,30.21,6,1,6,0.00
2013-3-11,62.8,53.8,32.4,32.8,28.7,23.7,70,39,28,30.30,30.15,6,2,6,0.00
2013-3-12,66.7,60.1,38.7,30.3,27.4,22.8,60,29,24,30.24,30.15,10,3,10,0.00
2013-3-13,72.7,63.3,43.7,33.9,29.3,23.8,45,29,19,30.30,30.21,8,2,8,0.00
2013-3-14,75.4,62.6,44.1,34.4,30.5,25.2,54,32,18,30.30,30.21,10,2,10,0.00
2013-3-15,77.5,62.8,40.1,37.7,33.1,25.7,66,35,21,30.24,30.09,9,3,9,0.00
2013-3-16,71.4,65.8,52.2,37.8,28.7,23.6,50,25,20,30.12,30.00,8,4,8,0.00
2013-3-17,53.4,44.3,42.3,35.8,24.9,21.1,51,46,39,30.09,30.03,4,0,4,0.00
2013-3-18,66.7,55.8,43.7,40.2,29.9,19.6,59,38,25,30.15,30.06,8,2,8,0.00
2013-3-19,68.0,58.7,45.5,35.3,32.3,26.9,58,38,28,30.18,30.15,15,4,15,0.00
2013-3-20,69.1,58.8,45.0,38.0,32.1,22.9,58,37,29,30.18,30.06,13,5,13,0.00
2013-3-21,63.5,52.3,45.0,40.8,35.6,26.5,76,53,37,30.06,29.91,8,4,8,0.00
2013-3-22,68.2,59.0,44.2,43.8,35.8,27.5,77,45,23,30.00,29.94,8,3,8,0.00
2013-3-23,64.2,57.9,43.0,26.8,23.3,16.3,35,26,23,30.12,30.06,9,3,9,0.00
2013-3-24,67.3,59.1,45.3,34.3,31.1,24.7,48,35,23,30.12,30.06,5,2,5,0.00
2013-3-25,73.4,61.7,46.6,40.0,33.9,24.7,48,36,23,30.12,30.03,8,2,8,0.00
2013-3-26,66.7,59.3,45.3,33.0,27.9,18.2,48,31,23,30.06,30.03,10,4,10,0.00
2013-3-27,65.3,58.2,50.7,31.9,28.7,23.4,36,33,27,30.09,30.06,10,4,10,0.00
2013-3-28,69.3,64.1,52.2,37.5,33.7,30.3,46,32,26,30.15,30.12,9,4,9,0.00
2013-3-29,74.8,68.8,51.6,41.5,36.9,32.0,54,32,24,30.21,30.15,7,3,7,0.00
2013-3-30,70.0,57.0,48.0,41.9,40.1,38.5,72,54,33,30.18,30.15,9,3,9,0.00
2013-3-31,61.9,56.9,44.4,41.3,38.7,36.5,80,51,45,30.18,30.12,12,6,12,0.00
2013-4-1,59.2,51.7,42.3,38.9,36.8,33.8,85,58,41,30.18,30.12,15,6,15,0.00
2013-4-2,67.1,61.3,49.6,43.3,40.8,33.4,72,48,31,30.15,30.09,10,3,10,0.00
2013-4-3,67.1,62.9,49.3,37.2,36.2,33.4,54,38,33,30.21,30.12,6,3,6,0.00
2013-4-4,68.5,60.0,52.5,34.3,32.3,28.8,48,36,24,30.15,30.15,13,6,13,0.00
2013-4-5,63.0,54.1,45.3,42.2,40.3,37.1,82,60,45,30.15,30.12,14,6,14,0.00
2013-4-6,55.9,51.8,48.2,44.9,44.2,43.3,86,76,64,30.12,30.06,6,3,6,0.00
2013-4-7,73.4,61.1,47.3,45.8,43.8,39.1,83,55,36,30.03,29.94,8,4,8,0.00
2013-4-8,50.4,40.2,36.5,41.0,37.1,35.4,98,89,61,29.85,29.74,15,5,15,0.73
2013-4-9,57.0,46.7,38.3,40.3,34.0,22.9,81,62,39,30.06,29.94,10,4,10,0.00
2013-4-10,61.5,58.9,57.0,26.8,24.8,22.6,29,27,25,30.18,30.18,6,3,6,0.00
2013-4-11,69.6,62.6,45.3,35.3,29.9,25.7,48,30,23,30.09,29.94,10,4,10,0.00
2013-4-12,73.6,65.5,44.6,40.0,31.7,26.2,52,30,19,30.03,29.94,9,2,9,0.00
2013-4-13,72.7,64.3,47.7,42.1,36.3,29.4,63,37,24,30.03,29.97,14,4,14,0.00
2013-4-14,61.5,54.6,44.1,42.2,41.3,40.1,92,63,48,29.97,29.91,12,5,12,0.00
2013-4-15,48.6,45.8,44.2,46.3,43.6,42.1,96,92,88,29.97,29.91,12,5,12,0.09
2013-4-16,50.2,41.7,36.5,38.8,33.4,29.3,93,74,50,29.97,29.91,14,6,14,5.74
2013-4-17,61.5,52.2,33.8,29.5,23.3,13.1,50,33,25,30.18,30.09,10,3,10,0.04
2013-4-18,62.1,55.3,40.3,24.3,17.9,9.0,32,23,14,30.27,30.21,12,4,12,0.00
2013-4-19,71.8,63.2,43.7,16.4,12.9,7.1,29,15,9,30.27,30.15,10,2,10,0.00
2013-4-20,76.8,73.1,70.2,30.1,20.7,14.9,21,14,10,30.12,30.09,12,4,12,0.00
2013-4-21,80.4,78.5,76.6,36.3,34.7,33.8,21,20,20,30.18,30.15,8,4,8,0.00
2013-4-22,77.5,65.9,49.5,40.6,34.7,28.1,68,34,21,30.15,30.00,10,4,10,0.00
2013-4-23,74.1,65.3,50.9,40.6,28.5,18.9,40,26,16,30.09,30.03,12,2,12,0.00
2013-4-24,74.7,59.4,46.0,41.1,33.5,23.5,82,42,16,30.03,29.97,10,3,10,0.00
2013-4-25,63.1,53.6,43.3,42.0,39.3,34.9,76,59,45,30.15,30.09,9,3,9,0.00
2013-4-26,77.7,75.5,71.6,40.0,36.8,32.6,26,25,22,30.27,30.24,6,3,6,0.00
2013-4-27,83.8,71.0,54.3,37.0,29.6,16.6,37,23,9,30.27,30.18,9,2,9,0.00
2013-4-28,85.6,75.9,54.0,35.7,29.1,14.4,37,18,13,30.18,30.03,10,4,10,0.30
2013-4-29,84.6,76.6,57.0,37.2,31.0,20.9,27,19,12,30.06,29.97,9,3,9,0.00
2013-4-30,78.1,67.3,48.4,42.4,30.8,19.2,32,26,15,29.97,29.94,9,3,9,0.00
2013-5-1,78.4,72.1,43.7,43.1,29.2,18.5,51,22,13,30.15,30.03,13,3,13,0.00
2013-5-2,73.9,67.0,52.0,22.3,10.3,2.7,17,11,8,30.33,30.21,13,3,13,0.00
2013-5-3,81.3,65.5,43.9,26.7,12.5,4.4,29,14,7,30.15,30.03,10,2,10,0.00
2013-5-4,76.3,56.6,41.9,39.3,19.6,11.1,36,25,10,30.03,29.91,10,2,10,0.00
2013-5-5,62.2,50.7,41.9,43.3,31.1,14.6,79,49,28,30.03,29.91,10,3,10,0.00
2013-5-6,52.0,47.6,45.0,50.6,46.6,44.0,98,96,91,30.06,30.00,11,3,11,0.62
2013-5-8,66.6,53.5,45.7,50.1,46.4,42.0,97,79,48,30.15,30.12,8,3,8,0.00
2013-5-9,61.9,53.6,49.5,46.5,44.0,38.5,84,70,53,30.15,30.12,9,2,9,0.00
2013-5-10,79.9,60.6,40.8,53.4,40.3,34.4,85,52,24,30.24,30.15,7,2,7,0.00
2013-5-12,89.8,82.7,61.5,46.0,33.7,22.7,34,18,11,30.30,30.15,9,2,9,0.00
2013-5-13,93.7,80.3,47.7,54.2,40.4,30.5,64,28,12,30.27,30.18,9,2,9,0.00
2013-5-14,90.7,61.3,52.7,36.7,27.5,21.7,38,28,15,30.18,30.09,6,2,6,0.00
2013-5-15,69.6,58.6,50.9,40.0,34.1,28.2,50,40,33,30.12,30.09,9,2,9,0.00
2013-5-16,77.7,63.9,48.9,43.9,37.5,22.0,68,39,22,30.09,30.03,10,3,10,0.00
2013-5-17,71.1,60.1,47.1,46.1,43.9,41.3,83,57,40,30.06,30.03,12,4,12,0.00
2013-5-18,64.4,58.7,49.6,45.9,44.6,41.3,73,60,50,30.12,30.12,8,3,8,0.00
2013-5-19,79.7,75.0,66.9,47.7,46.5,45.1,48,37,31,30.09,30.06,6,3,6,0.00
2013-5-20,84.2,73.5,51.1,46.1,37.4,31.5,71,29,16,30.15,30.06,9,2,9,0.00
2013-5-21,85.8,70.6,54.9,52.3,41.2,31.0,61,36,21,30.12,30.00,8,2,8,0.00
2013-5-22,56.1,55.4,54.9,31.0,29.6,28.8,40,37,36,29.97,29.97,4,2,4,0.00
2013-5-23,70.3,51.8,38.5,38.9,26.8,15.6,72,41,22,30.03,29.94,7,2,7,0.00
2013-5-24,77.4,54.3,36.7,37.1,22.7,14.1,50,32,12,30.09,30.03,7,1,7,0.00
2013-5-25,74.8,69.9,47.1,40.3,34.8,26.3,59,28,19,30.12,30.09,8,3,8,0.00
2013-5-26,70.2,64.4,50.5,38.6,34.3,20.4,60,34,18,30.15,30.09,10,4,10,0.00
2013-5-27,75.4,67.7,50.2,44.8,41.5,36.0,74,40,29,30.09,30.03,10,4,10,0.00
2013-5-28,56.7,51.2,49.6,38.2,36.3,35.2,59,57,50,29.97,29.97,5,1,5,0.00
2013-5-29,51.3,48.1,46.9,40.0,37.0,35.4,67,65,64,29.97,29.94,3,1,3,0.00
2013-5-30,88.7,69.8,56.1,47.1,40.2,31.2,46,35,19,30.03,29.94,6,2,6,0.00
2013-5-31,90.3,82.4,58.8,43.8,39.2,34.3,40,22,18,30.09,30.03,6,1,6,0.00
2013-6-1,94.8,85.9,66.0,47.8,39.4,24.8,42,22,9,30.06,30.00,7,2,7,0.00
2013-6-3,87.1,75.3,55.2,49.6,42.7,26.6,48,32,21,30.03,30.00,8,2,8,0.00
2013-6-4,84.4,76.8,51.1,45.3,36.9,24.4,48,25,17,30.09,30.06,8,2,8,0.00
2013-6-5,70.5,66.4,60.1,45.7,41.2,28.4,44,40,31,30.09,30.06,3,1,3,0.00
2013-6-6,88.9,76.0,57.7,66.2,42.2,29.4,67,32,19,30.09,30.03,7,2,7,0.00
2013-6-7,98.6,78.2,57.2,54.7,36.0,18.9,39,24,6,30.06,29.97,7,1,7,0.00
2013-6-8,95.0,91.4,86.4,47.5,42.9,31.0,26,19,11,30.03,30.03,7,2,7,0.00
2013-6-9,87.6,80.4,55.8,42.8,39.5,21.4,29,23,20,30.06,30.03,6,2,6,0.00
2013-6-10,88.2,75.6,56.7,40.9,36.4,23.2,48,26,13,30.09,30.03,12,2,12,0.00
2013-6-12,88.9,80.7,61.9,49.9,44.8,33.2,46,29,19,30.15,30.09,7,2,7,0.00
2013-6-13,88.3,81.1,62.8,42.2,33.9,16.6,43,20,9,30.15,30.06,10,2,10,0.00
2013-6-14,88.3,69.3,58.1,39.3,32.0,17.9,34,27,13,30.06,30.00,4,1,4,0.00
2013-6-15,84.2,81.5,79.3,36.8,25.6,16.6,20,13,8,30.09,30.06,8,3,8,0.00
2013-6-17,88.2,85.1,79.9,42.6,33.1,24.2,26,16,11,30.15,30.12,7,2,7,0.00
2013-6-18,84.4,70.1,61.9,39.3,32.2,27.6,27,25,19,30.09,30.06,8,2,8,0.00
2013-6-19,79.7,69.8,51.3,38.3,25.0,15.4,39,21,10,30.00,29.97,7,2,7,0.00
2013-6-20,85.5,71.1,48.0,36.6,29.0,18.8,35,23,11,30.03,30.00,8,2,8,0.00
2013-6-22,75.2,62.2,52.0,40.7,35.9,27.6,47,38,27,30.03,30.00,6,1,6,0.00
2013-6-23,76.8,67.8,58.1,43.3,38.8,31.1,50,35,29,29.97,29.94,8,3,8,0.00
2013-6-24,78.4,71.3,54.3,45.9,35.4,28.6,73,27,21,30.06,29.97,9,3,9,0.00
2013-6-25,83.7,75.0,56.3,50.5,47.5,41.0,71,39,30,30.15,30.09,9,3,9,0.00
2013-6-26,92.7,80.1,65.1,55.5,47.3,41.0,52,33,24,30.18,30.09,6,1,6,0.00
2013-6-27,64.9,64.9,64.9,41.9,41.9,41.9,43,43,43,30.15,30.15,0,0,0,0.00
2013-6-28,99.1,86.2,69.6,51.1,40.1,32.7,36,21,11,30.21,30.12,7,2,7,0.00
2013-6-29,103.3,91.1,71.4,43.8,36.4,26.3,31,16,8,30.15,30.03,7,2,7,0.00
2013-6-30,104.5,87.9,67.3,56.8,43.8,32.8,41,24,9,30.09,30.03,7,1,7,0.00
2013-7-1,97.2,87.4,72.0,48.8,44.4,41.2,36,23,18,30.12,30.06,6,2,6,0.00
2013-7-2,99.3,90.1,75.2,46.2,41.5,32.6,21,19,16,30.21,30.12,8,2,8,0.00
2013-7-3,96.6,82.3,70.2,44.3,37.7,30.7,24,21,16,30.15,30.03,9,2,9,0.00
2013-7-4,93.6,83.1,71.1,43.3,38.2,31.9,24,20,17,30.06,30.03,6,2,6,0.00
2013-7-5,98.4,83.6,67.1,47.3,41.9,34.7,39,24,16,30.03,29.97,8,2,8,0.00
2013-7-6,95.9,80.7,65.8,51.0,45.5,38.5,43,30,19,30.03,29.97,7,2,7,0.00
2013-7-7,97.0,82.5,60.6,45.0,40.5,31.0,45,25,11,30.09,30.00,7,2,7,0.00
2013-7-8,100.2,77.2,61.7,47.9,34.0,24.5,38,24,8,30.18,30.06,6,1,6,0.00
2013-7-9,100.8,86.2,70.5,45.6,39.3,31.0,34,20,11,30.21,30.15,14,1,14,0.00
2013-7-11,80.6,74.8,68.7,56.7,53.8,48.9,56,48,41,30.15,30.09,5,1,5,0.00
2013-7-12,91.8,82.5,67.8,53.9,50.8,45.3,52,34,28,30.15,30.06,8,2,8,0.00
2013-7-14,70.2,69.8,69.4,43.6,40.9,38.0,39,35,31,30.09,30.06,0,0,0,0.00
2013-7-15,92.7,84.6,69.3,46.9,39.8,31.9,31,21,18,30.09,30.00,16,3,16,0.00
2013-7-16,88.3,84.0,62.2,38.2,27.9,16.1,24,13,10,30.15,30.09,10,4,10,0.00
2013-7-18,96.3,89.0,65.5,40.2,27.9,17.3,27,12,6,30.18,30.06,7,2,7,0.00
2013-7-19,89.4,76.0,67.5,39.9,33.5,21.0,27,22,10,30.06,30.03,4,0,4,0.00
2013-7-20,86.2,80.1,66.4,61.9,57.0,51.3,59,45,41,30.09,30.00,5,1,5,0.00
2013-7-21,78.3,76.3,74.3,60.9,60.8,60.8,63,59,55,30.12,30.09,1,1,1,0.13
2013-7-22,60.8,60.5,60.4,58.8,58.7,58.7,94,94,93,30.15,30.15,0,0,0,0.00
2013-7-23,85.6,80.6,68.2,59.4,56.0,51.5,58,43,38,30.21,30.12,8,3,8,0.00
2013-7-24,94.1,89.5,83.7,56.4,53.5,50.2,33,29,28,30.15,30.09,8,3,8,0.00
2013-7-25,87.3,85.2,82.6,53.0,49.2,46.8,33,29,26,30.15,30.15,5,1,5,0.00
2013-7-26,81.5,80.0,77.0,48.4,47.9,47.0,35,32,31,30.18,30.18,4,1,4,0.00
2013-7-29,78.6,70.1,57.7,45.5,40.8,32.7,40,35,30,30.18,30.15,5,1,5,0.00
2013-7-30,87.6,77.0,57.0,49.8,45.7,32.7,62,34,25,30.24,30.18,8,2,8,0.00
2013-7-31,83.8,83.8,83.8,48.2,48.2,48.2,29,29,29,30.24,30.24,1,1,1,0.00
2013-8-1,92.3,85.6,75.4,44.9,30.6,9.6,32,16,5,30.15,30.06,8,3,8,0.00
2013-8-2,87.8,83.2,69.6,42.6,33.5,11.6,34,19,6,30.12,30.09,9,4,9,0.00
2013-8-3,88.9,84.2,73.2,43.1,35.9,25.4,32,19,11,30.15,30.09,8,3,8,0.00
2013-8-4,87.4,87.1,86.7,30.0,28.2,26.5,13,12,11,30.15,30.15,5,2,5,0.00
2013-8-5,88.2,87.1,86.7,19.1,18.8,18.3,8,8,8,30.18,30.18,5,2,5,0.00
2013-8-7,84.7,74.3,60.3,37.0,28.2,16.6,34,20,9,30.21,30.15,10,2,10,0.00
2013-8-8,85.6,71.5,57.6,36.0,20.9,9.2,27,16,7,30.15,30.09,10,2,10,0.00
2013-8-10,80.4,76.3,73.9,23.2,19.1,15.4,13,12,10,30.15,30.15,5,2,5,0.00
2013-8-11,86.4,79.1,58.8,43.3,38.0,28.3,39,24,19,30.15,30.06,8,3,8,0.00
2013-8-12,87.4,79.7,60.6,40.2,37.8,25.7,33,23,19,30.15,30.09,10,3,10,0.00
2013-8-13,93.9,90.0,87.8,32.2,28.1,24.8,13,11,9,30.15,30.12,6,2,6,0.00
2013-8-14,95.0,90.0,69.1,44.7,41.6,35.1,30,19,14,30.15,30.06,8,2,8,0.00
2013-8-15,94.8,86.3,68.5,50.2,38.6,31.0,28,19,11,30.15,30.09,8,2,8,0.00
2013-8-16,94.3,88.4,69.1,44.7,37.1,31.0,33,17,11,30.18,30.12,8,2,8,0.00
2013-8-17,84.4,84.3,84.2,40.2,40.2,39.9,21,21,21,30.06,30.06,3,3,3,0.00
2013-8-19,90.0,89.1,88.2,52.5,51.8,51.0,28,28,28,30.15,30.15,6,1,6,0.00
2013-8-20,86.5,85.8,85.8,38.8,38.8,38.0,19,19,19,30.06,30.06,3,3,3,0.00
2013-8-23,82.4,77.3,66.4,48.8,44.2,30.9,42,31,22,30.12,30.00,4,0,4,0.00
2013-8-24,89.1,79.6,62.1,55.7,47.1,38.8,69,37,20,30.12,30.03,6,1,6,0.00
2013-8-25,78.3,77.1,75.6,60.3,59.0,57.8,54,54,53,30.15,30.15,2,1,2,0.00
2013-8-27,74.7,67.3,63.0,54.9,54.0,52.8,75,63,48,30.09,30.03,4,0,4,0.00
2013-8-28,90.3,80.6,68.5,66.8,55.6,48.7,72,43,31,30.15,30.09,6,1,6,0.00
2013-8-29,81.0,75.6,68.4,64.9,62.3,60.1,77,64,54,30.24,30.15,5,1,5,0.00
2013-8-30,86.2,75.8,66.4,67.4,62.7,59.8,80,65,44,30.24,30.18,6,1,6,0.00
2013-8-31,86.5,81.6,66.4,63.5,60.8,59.3,80,50,43,30.21,30.21,6,2,6,0.00
2013-9-1,88.2,80.4,64.2,60.2,57.0,50.6,67,46,36,30.18,30.09,8,2,8,0.00
2013-9-3,74.3,74.3,74.3,49.8,49.8,49.8,42,42,42,30.09,30.09,0,0,0,0.00
2013-9-4,82.4,74.7,69.4,59.4,55.3,52.3,60,51,41,30.15,30.12,1,0,1,0.00
2013-9-5,78.4,77.8,77.2,65.7,65.2,63.5,66,65,65,30.12,30.12,0,0,0,0.00
2013-9-6,91.4,85.2,68.4,64.5,58.8,55.3,67,42,31,30.18,30.15,4,0,4,0.04
2013-9-7,82.6,75.2,67.8,63.1,59.8,54.6,70,59,47,30.15,30.12,9,0,9,0.00
2013-9-8,85.6,77.4,59.9,56.1,47.9,40.5,52,36,27,30.12,30.03,6,1,6,0.00
2013-9-9,72.7,67.0,63.5,41.3,38.8,36.9,44,36,31,30.03,29.97,8,1,8,0.00
2013-9-10,67.5,66.5,65.5,43.0,42.6,42.0,44,42,40,30.09,30.06,3,1,3,0.00
2013-9-13,72.9,64.3,60.1,35.3,33.7,32.3,38,32,24,29.97,29.94,3,0,3,0.00
2013-9-15,89.1,80.5,61.3,51.5,42.0,34.2,50,26,19,30.03,29.97,7,1,7,0.00
2013-9-16,86.9,78.6,75.0,44.5,43.5,42.0,31,29,22,30.03,30.00,4,2,4,0.00
2013-9-17,82.2,72.5,54.3,45.9,41.7,32.9,49,34,23,30.03,29.94,8,2,8,0.00
2013-9-18,73.0,59.7,47.3,41.0,34.8,27.2,49,40,29,30.00,29.94,6,1,6,0.00
2013-9-19,74.1,50.8,44.8,41.4,31.7,27.8,57,48,30,30.03,29.97,5,1,5,0.00
2013-9-20,57.6,51.8,45.9,37.3,33.6,29.2,52,50,47,30.06,30.03,1,0,1,0.00
2013-9-22,66.7,60.8,50.4,44.9,42.2,39.5,72,52,38,30.00,29.94,8,2,8,0.00
2013-9-23,62.4,57.6,51.4,29.6,28.3,26.4,40,33,28,30.12,30.06,2,0,2,0.00
2013-9-24,58.5,56.9,54.1,33.9,32.2,28.6,41,39,36,30.06,30.03,4,1,4,0.00
2013-9-26,49.8,47.9,46.4,42.0,40.4,38.2,78,75,73,30.00,29.88,6,2,6,0.00
2013-9-27,41.9,36.6,33.8,31.3,27.8,25.1,73,70,68,30.09,30.06,4,1,4,0.00
2013-9-28,71.6,71.2,70.7,30.5,27.4,26.5,22,19,19,30.18,30.15,4,2,4,0.00
2013-9-29,76.5,68.6,49.3,33.5,27.1,20.3,33,21,15,30.24,30.15,6,1,6,0.00
2013-9-30,63.3,55.8,46.9,26.2,21.5,16.2,30,26,24,30.09,30.06,1,0,1,0.00
2013-10-1,55.9,54.9,53.8,28.2,27.4,25.5,35,34,32,30.09,30.09,3,2,3,0.00
2013-10-2,70.9,55.7,43.7,43.1,30.6,19.1,63,39,25,30.12,30.03,6,1,6,0.00
2013-10-3,63.7,56.2,47.3,45.2,35.6,26.6,78,47,36,30.03,29.97,8,2,8,0.00
2013-10-4,66.2,57.8,46.2,27.2,21.3,10.6,41,25,17,30.21,30.06,7,2,7,0.00
2013-10-5,66.0,61.4,50.7,24.5,17.2,9.8,23,18,15,30.30,30.24,7,2,7,0.00
2013-10-6,70.7,61.5,41.9,21.0,16.8,9.7,30,18,14,30.27,30.18,7,2,7,0.00
2013-10-7,75.9,58.4,35.6,30.3,21.4,13.7,40,26,11,30.18,30.09,8,2,8,0.00
2013-10-8,66.2,55.8,43.9,41.5,28.3,13.5,74,37,20,30.06,29.91,10,2,10,0.00
2013-10-9,44.4,42.8,40.3,43.7,41.9,39.6,98,97,91,29.88,29.79,15,4,15,0.04
2013-10-10,52.0,41.7,36.3,48.5,40.6,35.0,98,96,85,30.09,29.94,9,2,9,0.00
2013-10-11,56.3,41.0,32.4,43.3,36.6,31.3,97,86,54,30.15,30.09,4,1,4,0.00
2013-10-12,58.5,55.6,53.1,44.0,43.1,42.5,69,63,56,30.03,30.03,4,1,4,0.00
2013-10-13,60.8,52.0,36.3,38.9,33.8,22.2,73,51,36,30.09,30.03,9,2,9,0.00
2013-10-14,46.4,41.9,40.3,28.4,27.1,25.3,61,56,44,30.15,30.12,2,0,2,0.00
2013-10-15,66.2,50.9,38.1,33.9,28.8,24.0,66,44,27,30.15,30.06,4,1,4,0.00
2013-10-16,48.6,43.4,40.6,23.6,22.6,21.6,49,44,37,30.21,30.15,3,1,3,0.00
2013-10-17,49.8,40.2,32.7,23.0,21.9,21.1,64,50,33,30.18,30.09,2,0,2,0.00
2013-10-18,68.4,49.0,33.6,29.7,25.1,20.6,65,43,22,30.18,30.15,6,2,6,0.00
2013-10-19,71.6,65.8,49.1,30.6,27.3,20.9,34,24,19,30.15,30.15,4,1,4,0.00
2013-10-20,70.5,70.4,70.3,29.9,29.8,29.7,22,22,22,30.12,30.12,4,2,4,0.00
2013-10-21,51.6,39.7,31.1,23.6,16.0,11.4,44,39,28,30.15,30.12,3,1,3,0.00
2013-10-22,56.8,48.3,42.4,22.9,21.2,17.7,43,35,26,30.18,30.09,3,0,3,0.00
2013-10-23,59.5,45.1,36.7,38.2,26.5,20.0,52,48,44,30.09,30.03,4,1,4,0.00
2013-10-24,54.1,42.6,34.3,34.4,26.2,21.0,59,52,46,30.15,30.09,4,0,4,0.00
2013-10-25,72.5,51.9,34.9,37.5,27.1,21.9,62,42,22,30.27,30.18,4,0,4,0.00
2013-10-26,70.3,59.6,50.2,35.5,29.5,24.9,37,32,25,30.30,30.18,4,1,4,0.00
2013-10-27,69.3,63.0,51.1,36.3,32.6,26.4,47,32,24,30.15,29.94,8,2,8,0.00
2013-10-28,46.9,46.6,46.4,46.4,45.9,45.3,98,97,96,29.91,29.91,13,6,13,0.00
2013-10-29,41.7,41.3,41.0,41.2,40.7,40.5,98,98,98,30.00,29.97,6,3,6,0.00
2013-10-30,35.8,35.0,34.5,35.3,34.5,34.0,98,98,98,30.06,30.06,2,0,2,0.00
2013-10-31,59.2,49.4,35.6,31.8,28.8,23.7,73,47,35,30.21,30.15,5,1,5,0.00
2013-11-1,61.5,49.8,42.3,32.0,26.6,22.7,47,41,31,30.27,30.24,7,2,7,0.00
2013-11-2,64.0,58.4,48.9,32.8,30.1,26.0,50,34,28,30.06,30.03,6,2,6,0.00
2013-11-3,57.7,52.6,39.2,35.4,30.5,21.1,68,44,34,30.03,29.94,8,3,8,0.00
2013-11-4,43.9,39.4,35.1,38.0,32.3,25.6,84,75,68,29.97,29.91,6,2,6,0.00
2013-11-5,40.8,35.8,32.2,29.7,23.5,15.2,82,64,39,30.21,30.12,4,1,4,0.00
2013-11-6,46.8,42.5,37.8,14.4,9.9,6.4,33,27,19,30.33,30.33,4,1,4,0.00
2013-11-7,65.5,51.9,39.9,22.3,17.6,12.2,40,27,13,30.30,30.18,5,1,5,0.00
2013-11-8,65.3,41.8,34.0,29.7,19.7,13.8,51,42,24,30.21,30.12,4,0,4,0.00
2013-11-9,46.8,36.1,36.1,14.7,14.7,14.7,41,41,41,30.21,30.15,0,0,0,0.00
2013-11-10,62.2,48.0,39.0,25.2,21.6,18.2,44,36,24,30.21,30.18,3,0,3,0.00
2013-11-11,66.7,55.3,35.6,35.8,30.5,22.2,61,40,29,30.27,30.21,6,1,6,0.00
2013-11-12,73.0,57.1,44.2,36.6,30.4,25.8,49,38,24,30.39,30.30,4,1,4,0.00
2013-11-13,51.6,48.7,42.4,31.6,28.4,25.7,59,46,38,30.27,30.15,3,1,3,0.00
2013-11-14,69.1,56.1,42.8,34.7,30.3,26.7,59,39,24,30.18,30.03,5,1,5,0.00
2013-11-15,58.8,51.2,42.6,41.9,35.7,24.6,86,57,36,29.91,29.79,10,3,10,0.00
2013-11-16,45.1,42.6,41.7,43.3,41.3,39.7,98,95,86,29.97,29.91,11,4,11,0.00
2013-11-17,55.8,49.5,33.6,41.7,37.7,32.9,98,65,49,30.12,30.06,5,1,5,0.00
2013-11-18,57.0,44.4,33.1,45.1,40.0,31.0,96,85,61,30.21,30.15,4,1,4,0.00
2013-11-19,56.1,47.9,43.5,44.2,41.7,37.7,94,80,63,30.12,30.03,6,3,7,0.00
2013-11-20,56.7,48.2,42.4,45.9,43.4,41.1,96,84,61,30.03,29.97,10,4,10,0.00
2013-11-21,48.7,47.3,43.7,48.2,46.8,43.0,98,98,98,30.00,29.94,15,4,15,0.00
2013-11-22,50.2,41.8,36.9,48.2,41.0,36.1,98,97,92,30.00,29.91,6,1,6,0.00
2013-11-23,49.3,41.1,34.7,40.0,36.9,33.5,98,86,65,30.12,30.00,4,1,4,0.00
2013-11-24,51.6,44.1,34.0,38.8,35.0,29.7,87,71,54,30.21,30.15,5,1,5,0.00
2013-11-25,52.5,40.5,34.3,34.9,31.3,27.1,87,71,45,30.30,30.24,8,2,8,0.00
2013-11-26,45.3,43.4,42.1,28.1,26.3,24.8,53,51,49,30.30,30.21,6,2,6,0.00
2013-11-27,54.7,45.6,36.0,30.3,28.0,23.7,61,51,39,30.15,30.03,6,2,6,0.00
2013-11-28,55.8,46.1,36.1,35.1,29.1,25.0,66,52,39,30.15,30.03,7,2,7,0.00
2013-11-29,57.7,48.8,37.2,35.7,32.5,29.9,76,54,39,30.27,30.18,6,2,6,0.00
2013-11-30,56.8,54.0,45.5,35.9,33.3,31.0,69,46,40,30.30,30.18,6,2,6,0.00
2013-12-1,57.9,56.9,54.9,31.6,30.6,29.8,41,37,35,30.36,30.27,7,3,7,0.00
2013-12-2,52.3,38.9,35.1,23.2,20.0,18.8,53,47,28,30.24,30.09,9,1,9,0.00
2013-12-3,57.2,48.6,42.8,42.5,30.8,15.0,93,56,27,29.97,29.82,12,4,12,0.00
2013-12-4,44.4,36.7,31.3,40.3,34.7,27.6,98,93,75,29.97,29.91,10,3,10,0.00
2013-12-5,41.7,35.8,28.8,32.0,29.1,24.0,89,77,62,30.06,29.97,6,2,6,0.00
2013-12-6,39.9,34.3,27.9,32.1,28.2,24.8,89,78,61,30.15,30.09,7,1,7,0.00
2013-12-7,38.7,35.0,32.5,38.2,32.6,26.8,98,91,77,30.09,29.97,22,6,22,6.21
2013-12-8,39.6,35.0,28.2,35.5,32.9,27.7,98,92,82,30.12,30.06,8,3,8,0.04
2013-12-9,36.0,28.7,23.5,20.7,13.3,5.1,86,54,40,30.33,30.21,11,4,11,0.04
2013-12-10,44.2,36.9,29.1,13.2,9.5,4.9,36,32,28,30.30,30.15,8,3,8,0.00
2013-12-11,42.6,35.6,32.2,13.6,11.9,10.6,41,37,29,30.24,30.21,4,1,4,0.00
2013-12-12,53.2,38.5,30.2,25.5,17.3,11.1,50,43,32,30.27,30.21,6,1,6,0.00
2013-12-13,45.7,39.6,33.3,17.6,15.3,12.7,45,37,32,30.30,30.21,7,2,7,0.00
2013-12-14,49.1,46.2,39.0,20.2,18.3,13.4,38,33,30,30.39,30.30,11,4,11,0.00
2013-12-15,56.8,51.6,43.3,21.4,18.5,13.7,30,27,25,30.39,30.27,11,3,11,0.00
2013-12-16,62.6,54.4,48.6,25.7,20.2,17.0,28,26,22,30.36,30.27,6,2,6,0.00
2013-12-17,49.6,48.2,47.5,18.8,18.4,17.9,31,30,28,30.30,30.30,3,1,3,0.00
2013-12-18,66.4,54.4,40.1,33.8,26.4,18.3,53,35,25,30.15,29.94,11,2,11,0.00
2013-12-19,39.9,36.3,30.6,39.4,35.3,30.1,98,96,88,29.88,29.76,10,2,10,0.37
2013-12-20,37.4,32.8,28.6,36.9,32.3,27.9,98,98,98,29.97,29.79,6,1,6,0.04
2013-12-21,47.3,38.8,31.1,40.8,34.1,28.0,90,83,71,30.09,29.97,7,2,7,0.00
2013-12-22,51.4,44.9,33.6,32.3,29.1,24.7,70,54,42,30.30,30.24,6,1,6,0.00
2013-12-23,48.9,43.0,40.8,26.3,22.8,20.2,49,44,40,30.42,30.33,8,3,8,0.00
2013-12-24,57.6,42.8,39.9,28.8,23.2,21.7,50,46,32,30.33,30.24,10,2,10,0.00
2013-12-25,54.7,48.7,40.5,25.6,19.9,14.7,36,32,28,30.36,30.27,10,3,10,0.00
2013-12-26,46.0,44.7,44.1,15.4,9.5,8.1,29,23,22,30.30,30.24,8,4,8,0.00
2013-12-27,41.2,37.0,32.9,14.9,10.9,7.9,39,34,29,30.30,30.21,6,3,6,0.00
2013-12-29,51.8,45.4,34.9,20.3,15.2,7.5,32,29,27,30.21,30.15,6,2,6,0.00
2013-12-30,58.5,39.9,30.4,19.1,9.8,5.8,40,30,14,30.36,30.30,6,2,6,0.00
2013-12-31,60.3,42.4,26.4,23.5,14.6,7.0,46,34,19,30.30,30.21,6,2,6,0.00
2014-1-1,59.4,51.9,42.6,22.0,17.7,10.1,38,26,17,30.27,30.21,8,2,8,0.00
2014-1-2,56.8,41.0,35.1,27.1,18.9,14.8,45,41,31,30.27,30.15,5,1,5,0.00